Time;durP1;ratioP1;P1;durP2;ratioP2;P2;SDS_P1;SDS_P2;PMS_P1;PMS_P2;Temp;Humidity;BMP_temperature;BMP_pressure;BME280_temperature;BME280_humidity;BME280_pressure;Samples;Min_cycle;Max_cycle;Signal;HPM_P1;HPM_P2
2022/02/07 00:02:01;;;;;;;3.58;1.42;;;;;;;2.26;93.28;96978.63;4188891;28;20044;-72
2022/02/07 00:04:03;;;;;;;1.70;1.30;;;;;;;2.17;93.66;96988.97;4187773;28;20134;-73
2022/02/07 00:06:04;;;;;;;;;;;;;;;2.25;90.88;96990.72;4188942;28;20396;-73
2022/02/07 00:08:07;;;;;;;1.83;1.15;;;;;;;2.15;89.65;96983.06;4187200;28;19916;-73
2022/02/07 00:10:07;;;;;;;;;;;;;;;2.04;87.18;96982.88;4188743;28;20519;-72
2022/02/07 00:12:08;;;;;;;8.68;1.58;;;;;;;2.03;86.00;96988.69;4188471;28;19916;-73
2022/02/07 00:14:09;;;;;;;4.10;1.02;;;;;;;1.89;86.76;97000.06;4187575;28;20484;-72
2022/02/07 00:16:10;;;;;;;1.25;1.10;;;;;;;1.82;86.02;97006.19;4188286;28;20308;-73
2022/02/07 00:18:10;;;;;;;1.92;1.20;;;;;;;1.69;86.61;97002.78;4187244;28;20037;-73
2022/02/07 00:20:15;;;;;;;1.85;1.00;;;;;;;1.71;86.26;97009.81;4188197;28;20032;-73
2022/02/07 00:22:16;;;;;;;3.42;1.00;;;;;;;1.65;86.07;97010.06;4188230;28;20483;-72
2022/02/07 00:24:16;;;;;;;1.10;1.00;;;;;;;1.63;86.35;97026.00;4188025;28;20554;-72
2022/02/07 00:26:18;;;;;;;1.58;1.10;;;;;;;1.58;87.17;97004.47;4187718;28;20115;-72
2022/02/07 00:28:18;;;;;;;1.13;1.00;;;;;;;1.58;87.36;97020.06;4187236;28;20036;-72
2022/02/07 00:30:20;;;;;;;2.60;1.00;;;;;;;1.56;87.92;97020.38;4187448;28;20032;-72
2022/02/07 00:32:21;;;;;;;2.35;1.10;;;;;;;1.56;88.83;97036.75;4188031;28;20093;-72
2022/02/07 00:34:21;;;;;;;1.95;1.10;;;;;;;1.59;87.95;97043.44;4187775;28;20049;-72
2022/02/07 00:36:21;;;;;;;1.65;1.10;;;;;;;1.62;87.75;97048.16;4186622;28;20044;-72
2022/02/07 00:38:24;;;;;;;1.25;1.00;;;;;;;1.57;88.99;97049.25;4187041;28;20056;-72
2022/02/07 00:42:34;;;;;;;1.48;1.10;;;;;;;1.65;88.19;97075.50;4188152;28;20067;-72
2022/02/07 00:44:36;;;;;;;3.50;1.00;;;;;;;1.19;90.63;97068.16;4187433;28;20036;-72
2022/02/07 00:46:45;;;;;;;6.07;1.00;;;;;;;0.81;94.18;97053.94;4187215;28;20132;-72
2022/02/07 00:48:46;;;;;;;2.10;1.25;;;;;;;0.86;95.09;97047.47;4187402;28;20036;-72
2022/02/07 00:50:46;;;;;;;1.70;1.25;;;;;;;0.78;96.05;97053.88;4187484;28;20231;-72
2022/02/07 00:52:46;;;;;;;6.25;1.20;;;;;;;0.81;95.90;97059.41;4187647;28;20127;-72
2022/02/07 00:54:47;;;;;;;2.10;1.20;;;;;;;0.84;95.64;97066.88;4187662;28;20044;-72
2022/02/07 00:56:47;;;;;;;1.30;1.20;;;;;;;0.90;95.50;97074.78;4186688;28;20052;-71
2022/02/07 00:58:47;;;;;;;1.48;1.38;;;;;;;0.94;95.55;97072.97;4187224;28;20044;-72
2022/02/07 01:00:49;;;;;;;1.80;1.30;;;;;;;1.06;94.78;97078.31;4185780;28;20122;-72
2022/02/07 01:02:49;;;;;;;1.65;1.25;;;;;;;1.12;94.61;97088.63;4187922;28;20048;-72
2022/02/07 01:04:50;;;;;;;1.40;1.15;;;;;;;1.12;95.24;97096.78;4187283;28;20078;-72
2022/02/07 01:06:50;;;;;;;2.58;1.15;;;;;;;1.16;94.47;97094.19;4186814;28;20115;-72
2022/02/07 01:09:02;;;;;;;2.83;1.45;;;;;;;1.26;94.06;97114.66;4187743;28;20048;-72
2022/02/07 01:11:13;;;;;;;1.65;1.40;;;;;;;1.38;92.89;97114.56;4187241;28;20036;-72
2022/02/07 01:13:25;;;;;;;2.40;1.58;;;;;;;1.47;92.84;97138.91;4187219;28;20484;-72
2022/02/07 01:15:44;;;;;;;4.43;1.80;;;;;;;1.49;92.57;97170.16;4187247;28;20404;-72
2022/02/07 01:22:37;;;;;;;1.00;0.90;;;;;;;0.45;100.00;97171.16;4187513;28;20189;-71
2022/02/07 01:46:26;;;;;;;0.60;0.60;;;;;;;-0.15;100.00;97247.00;4186812;28;20490;-71
2022/02/07 01:52:11;;;;;;;0.80;0.80;;;;;;;-0.06;100.00;97274.88;4187083;28;20036;-71
2022/02/07 01:54:26;;;;;;;1.30;0.80;;;;;;;-0.08;100.00;97284.50;4186195;28;20045;-72
2022/02/07 01:56:29;;;;;;;3.95;0.70;;;;;;;-0.02;100.00;97289.38;4186502;28;20106;-72
2022/02/07 01:58:29;;;;;;;0.80;0.80;;;;;;;-0.05;100.00;97295.50;4186663;28;20048;-72
2022/02/07 02:00:30;;;;;;;1.20;0.90;;;;;;;-0.03;100.00;97306.81;4186199;28;20040;-72
2022/02/07 02:02:31;;;;;;;0.68;0.60;;;;;;;-0.02;100.00;97311.13;4186537;28;20071;-72
2022/02/07 02:04:32;;;;;;;1.58;0.82;;;;;;;-0.01;100.00;97322.78;4187339;28;20292;-72
2022/02/07 02:06:33;;;;;;;0.70;0.70;;;;;;;-0.01;100.00;97334.47;4186366;28;20116;-72
2022/02/07 02:08:34;;;;;;;0.70;0.70;;;;;;;-0.06;100.00;97340.13;4186445;28;20055;-72
2022/02/07 02:10:36;;;;;;;1.33;0.77;;;;;;;-0.06;100.00;97352.94;4186043;28;20429;-72
2022/02/07 02:13:02;;;;;;;3.28;0.90;;;;;;;-0.04;100.00;97351.47;4186713;28;20476;-71
2022/02/07 02:22:29;;;;;;;1.90;1.00;;;;;;;0.04;100.00;97381.63;4186594;28;20063;-72
2022/02/07 02:38:05;;;;;;;0.60;0.60;;;;;;;-0.48;100.00;97466.34;4153071;28;20049;-71
2022/02/07 02:46:59;;;;;;;0.52;0.52;;;;;;;-0.88;100.00;97469.47;4185035;28;20087;-71
2022/02/07 02:49:02;;;;;;;0.50;0.50;;;;;;;-0.80;100.00;97484.91;4186387;28;20044;-71
2022/02/07 02:51:07;;;;;;;0.50;0.50;;;;;;;-0.86;100.00;97491.66;4186607;28;20042;-71
2022/02/07 02:53:11;;;;;;;1.58;0.60;;;;;;;-0.88;100.00;97494.69;4186315;28;20480;-72
2022/02/07 02:55:12;;;;;;;0.80;0.60;;;;;;;-0.82;100.00;97483.66;4185796;28;20049;-72
2022/02/07 02:57:13;;;;;;;1.45;0.70;;;;;;;-0.86;100.00;97487.00;4185121;28;20144;-72
2022/02/07 02:59:13;;;;;;;0.85;0.80;;;;;;;-0.79;100.00;97500.09;4186034;28;20072;-72
2022/02/07 03:01:13;;;;;;;0.90;0.90;;;;;;;-0.74;100.00;97512.69;4186300;28;20443;-72
2022/02/07 03:03:14;;;;;;;1.70;0.88;;;;;;;-0.70;100.00;97502.75;4186122;28;20461;-72
2022/02/07 03:05:15;;;;;;;2.72;1.20;;;;;;;-0.59;100.00;97509.38;4186063;28;20072;-72
2022/02/07 03:07:16;;;;;;;2.80;0.90;;;;;;;-0.51;100.00;97505.03;4185109;28;20049;-72
2022/02/07 03:09:17;;;;;;;3.90;1.00;;;;;;;-0.44;100.00;97510.75;4186013;28;20080;-72
2022/02/07 03:11:21;;;;;;;2.42;0.90;;;;;;;-0.26;100.00;97503.25;4185895;28;20040;-72
2022/02/07 03:17:41;;;;;;;6.07;1.42;;;;;;;-0.17;100.00;97506.72;4185038;28;20103;-72
2022/02/07 03:19:41;;;;;;;2.33;1.30;;;;;;;-0.10;100.00;97517.84;4185848;28;20052;-72
2022/02/07 03:21:43;;;;;;;1.80;1.15;;;;;;;-0.10;100.00;97523.28;4186146;28;20381;-71
2022/02/07 03:23:43;;;;;;;3.87;1.30;;;;;;;-0.12;100.00;97539.94;4185825;28;20044;-72
2022/02/07 03:25:44;;;;;;;5.18;1.30;;;;;;;-0.16;100.00;97535.53;4185709;28;20455;-72
2022/02/07 03:27:44;;;;;;;24.17;3.90;;;;;;;-0.12;100.00;97553.53;4185162;28;20049;-72
2022/02/07 03:29:45;;;;;;;2.03;1.00;;;;;;;-0.06;100.00;97565.03;4186126;28;20064;-72
2022/02/07 03:31:45;;;;;;;2.60;0.93;;;;;;;0.02;100.00;97555.22;4185477;28;20036;-72
2022/02/07 03:33:46;;;;;;;12.15;1.48;;;;;;;-0.09;100.00;97560.22;4185996;28;20051;-72
2022/02/07 03:35:46;;;;;;;1.80;0.75;;;;;;;-0.20;100.00;97584.31;4185725;28;20206;-72
2022/02/07 03:37:47;;;;;;;1.65;0.90;;;;;;;-0.16;100.00;97582.53;4184727;28;20048;-72
2022/02/07 03:39:47;;;;;;;3.38;1.13;;;;;;;-0.22;100.00;97588.47;4185587;28;20059;-72
2022/02/07 03:41:47;;;;;;;6.45;2.25;;;;;;;-0.22;100.00;97608.31;4185705;28;20079;-72
2022/02/07 03:43:48;;;;;;;3.70;2.10;;;;;;;-0.14;100.00;97617.53;4187519;28;20346;-72
2022/02/07 03:45:48;;;;;;;3.97;1.42;;;;;;;-0.21;100.00;97607.19;4188648;28;20420;-72
2022/02/07 03:47:49;;;;;;;1.77;1.10;;;;;;;-0.20;100.00;97610.69;4187796;28;20119;-72
2022/02/07 03:49:49;;;;;;;2.20;0.93;;;;;;;-0.13;100.00;97624.56;4188721;28;20351;-72
2022/02/07 03:51:50;;;;;;;3.00;1.25;;;;;;;-0.21;100.00;97622.69;4188413;28;20549;-72
2022/02/07 03:53:50;;;;;;;1.00;0.85;;;;;;;-0.23;100.00;97631.19;4188625;28;20281;-72
2022/02/07 03:55:50;;;;;;;2.47;1.73;;;;;;;-0.24;100.00;97645.09;4188481;28;20041;-72
2022/02/07 03:57:51;;;;;;;2.53;1.40;;;;;;;-0.22;100.00;97651.81;4187565;28;20079;-72
2022/02/07 03:59:51;;;;;;;3.08;1.38;;;;;;;-0.13;100.00;97652.56;4188103;28;20463;-72
2022/02/07 04:01:52;;;;;;;2.83;1.20;;;;;;;-0.14;100.00;97659.13;4188520;28;20045;-72
2022/02/07 04:03:52;;;;;;;8.73;1.38;;;;;;;-0.12;100.00;97666.94;4188529;28;20436;-72
2022/02/07 04:06:02;;;;;;;2.08;1.05;;;;;;;-0.03;100.00;97671.22;4187036;28;20044;-72
2022/02/07 04:08:03;;;;;;;3.17;1.10;;;;;;;0.03;100.00;97673.75;4187454;28;20580;-72
2022/02/07 04:10:03;;;;;;;2.25;0.98;;;;;;;0.05;100.00;97687.81;4188192;28;20334;-72
2022/02/07 04:12:10;;;;;;;2.60;0.80;;;;;;;0.19;97.38;97713.66;4188098;28;20139;-72
2022/02/07 04:14:19;;;;;;;4.38;1.30;;;;;;;0.21;97.22;97703.25;4188370;28;20036;-72
2022/02/07 04:16:20;;;;;;;1.50;0.95;;;;;;;0.24;97.04;97701.78;4189032;28;20155;-72
2022/02/07 04:18:22;;;;;;;3.30;1.00;;;;;;;0.17;97.72;97713.19;4188961;28;20092;-72
2022/02/07 04:20:22;;;;;;;8.73;1.85;;;;;;;0.09;99.35;97707.81;4188233;28;20044;-72
2022/02/07 04:22:25;;;;;;;2.47;1.05;;;;;;;0.08;99.79;97723.31;4187877;28;20052;-72
2022/02/07 04:24:25;;;;;;;2.92;1.27;;;;;;;0.10;99.87;97726.50;4188227;28;20045;-72
2022/02/07 04:26:26;;;;;;;4.38;1.15;;;;;;;0.01;100.00;97733.13;4188695;28;20048;-72
2022/02/07 04:28:26;;;;;;;3.80;1.20;;;;;;;0.02;100.00;97740.16;4187650;28;20051;-72
2022/02/07 04:30:27;;;;;;;2.72;0.90;;;;;;;0.06;100.00;97744.59;4187623;28;20523;-72
2022/02/07 04:32:27;;;;;;;2.45;1.00;;;;;;;0.04;100.00;97748.78;4187438;28;20563;-72
2022/02/07 04:34:27;;;;;;;1.00;0.90;;;;;;;0.10;100.00;97759.16;4186482;28;20515;-72
2022/02/07 04:36:28;;;;;;;2.13;1.17;;;;;;;0.11;99.92;97766.19;4187858;28;20053;-72
2022/02/07 04:38:28;;;;;;;4.53;1.15;;;;;;;0.13;99.53;97765.84;4187897;28;20088;-72
2022/02/07 04:40:29;;;;;;;3.53;1.13;;;;;;;0.15;99.16;97760.88;4187593;28;20080;-72
2022/02/07 04:42:29;;;;;;;1.55;0.93;;;;;;;0.16;98.34;97765.19;4187875;28;20155;-72
2022/02/07 04:44:37;;;;;;;4.15;1.10;;;;;;;0.19;97.77;97780.88;4187565;28;20052;-72
2022/02/07 04:47:06;;;;;;;3.28;1.30;;;;;;;0.19;96.48;97770.78;4187148;28;20053;-72
2022/02/07 04:49:48;;;;;;;3.97;1.30;;;;;;;0.31;95.32;97793.78;4187655;28;20037;-72
2022/02/07 05:05:10;;;;;;;4.68;1.70;;;;;;;0.37;94.20;97804.16;4177828;28;20439;-72
2022/02/07 05:14:07;;;;;;;3.15;1.38;;;;;;;0.22;97.73;97823.75;4187037;28;20515;-72
2022/02/07 05:16:15;;;;;;;7.32;2.13;;;;;;;0.25;97.32;97836.72;4187128;28;20062;-72
2022/02/07 05:18:17;;;;;;;3.92;0.88;;;;;;;0.30;97.01;97844.69;4187168;28;20136;-72
2022/02/07 05:20:18;;;;;;;2.97;1.35;;;;;;;0.16;98.12;97833.19;4186890;28;20089;-72
2022/02/07 05:22:18;;;;;;;6.90;1.42;;;;;;;0.14;98.38;97833.53;4186940;28;20532;-72
2022/02/07 05:24:18;;;;;;;2.78;1.00;;;;;;;0.03;99.13;97832.28;4186772;28;20203;-72
2022/02/07 05:26:20;;;;;;;5.93;1.50;;;;;;;0.02;98.89;97849.75;4186676;28;20155;-72
2022/02/07 05:28:20;;;;;;;5.22;1.27;;;;;;;0.05;98.16;97854.53;4186185;28;20032;-72
2022/02/07 05:30:21;;;;;;;3.40;1.75;;;;;;;0.08;97.87;97870.19;4186647;28;20055;-72
2022/02/07 05:32:21;;;;;;;2.60;1.00;;;;;;;0.18;97.36;97875.31;4187274;28;20048;-72
2022/02/07 05:34:22;;;;;;;4.78;1.50;;;;;;;0.27;96.78;97886.94;4186515;28;20468;-72
2022/02/07 05:36:22;;;;;;;5.35;1.67;;;;;;;0.23;97.38;97888.72;4186498;28;20492;-72
2022/02/07 05:38:22;;;;;;;2.67;1.40;;;;;;;0.17;98.14;97871.00;4186371;28;20044;-72
2022/02/07 05:40:38;;;;;;;10.13;1.52;;;;;;;0.22;97.88;97906.16;4186722;28;20484;-72
2022/02/07 05:42:39;;;;;;;3.38;1.48;;;;;;;0.20;98.06;97894.81;4186837;28;20055;-72
2022/02/07 05:44:44;;;;;;;5.15;1.88;;;;;;;0.19;97.62;97914.19;4186989;28;20697;-72
2022/02/07 05:46:44;;;;;;;8.40;1.67;;;;;;;0.18;97.48;97909.88;4186312;28;20047;-72
2022/02/07 05:48:45;;;;;;;3.30;1.20;;;;;;;0.24;97.65;97919.44;4186400;28;20096;-72
2022/02/07 05:50:45;;;;;;;4.88;1.33;;;;;;;0.19;98.55;97914.97;4186487;28;20049;-72
2022/02/07 05:52:45;;;;;;;6.45;2.10;;;;;;;0.13;100.00;97927.16;4186813;28;20043;-72
2022/02/07 05:54:46;;;;;;;1.85;1.33;;;;;;;0.06;100.00;97931.47;4186135;28;20045;-72
2022/02/07 05:56:46;;;;;;;5.70;1.52;;;;;;;-0.05;100.00;97939.19;4185053;28;20072;-72
2022/02/07 05:58:47;;;;;;;2.45;2.17;;;;;;;-0.09;100.00;97949.09;4181943;28;20763;-71
2022/02/07 06:00:47;;;;;;;6.15;2.22;;;;;;;-0.04;100.00;97962.53;4100984;28;20064;-71
2022/02/07 06:02:48;;;;;;;4.80;1.60;;;;;;;-0.04;100.00;97966.03;4171000;28;20041;-72
2022/02/07 06:04:48;;;;;;;3.40;1.40;;;;;;;-0.01;100.00;97980.91;4169982;28;20041;-71
2022/02/07 06:06:49;;;;;;;6.38;1.35;;;;;;;0.01;100.00;97983.34;4167376;28;20114;-72
2022/02/07 06:08:49;;;;;;;3.50;1.58;;;;;;;0.06;100.00;97996.75;4170107;28;20332;-72
2022/02/07 06:10:50;;;;;;;5.43;1.55;;;;;;;0.08;100.00;98005.41;4169977;28;20474;-72
2022/02/07 06:12:51;;;;;;;7.57;1.92;;;;;;;-0.03;100.00;97997.56;4170100;28;20543;-72
2022/02/07 06:14:52;;;;;;;6.75;1.92;;;;;;;-0.04;100.00;98008.75;4169671;28;20455;-72
2022/02/07 06:16:53;;;;;;;5.43;1.85;;;;;;;-0.06;100.00;98011.81;4168754;28;20514;-72
2022/02/07 06:18:53;;;;;;;7.32;1.90;;;;;;;-0.11;100.00;98016.59;4170263;28;20311;-72
2022/02/07 06:21:00;;;;;;;7.63;1.77;;;;;;;-0.13;100.00;98021.56;4170006;28;20040;-71
2022/02/07 06:23:00;;;;;;;3.25;1.33;;;;;;;-0.09;100.00;98026.03;4169631;28;20417;-71
2022/02/07 06:25:03;;;;;;;5.47;1.25;;;;;;;-0.03;100.00;98037.56;4169751;28;20040;-72
2022/02/07 06:27:03;;;;;;;5.10;1.52;;;;;;;-0.04;100.00;98033.25;4168476;28;20033;-72
2022/02/07 06:29:04;;;;;;;4.90;1.85;;;;;;;-0.03;100.00;98043.00;4170084;28;20040;-71
2022/02/07 06:31:05;;;;;;;4.68;1.80;;;;;;;-0.04;100.00;98047.63;4169821;28;20116;-72
2022/02/07 06:33:06;;;;;;;2.88;1.48;;;;;;;0.04;100.00;98053.41;4169400;28;20400;-72
2022/02/07 06:35:08;;;;;;;11.10;1.83;;;;;;;0.06;100.00;98062.03;4169775;28;20114;-72
2022/02/07 06:37:08;;;;;;;11.43;1.70;;;;;;;0.09;100.00;98061.41;4168807;28;20045;-72
2022/02/07 06:39:08;;;;;;;5.13;1.45;;;;;;;0.24;98.12;98072.59;4169071;28;20477;-72
2022/02/07 06:41:09;;;;;;;4.90;1.40;;;;;;;0.28;96.43;98059.97;4169450;28;20053;-72
2022/02/07 06:43:09;;;;;;;4.85;1.65;;;;;;;0.36;95.09;98065.72;4170006;28;20812;-72
2022/02/07 06:45:11;;;;;;;9.80;1.40;;;;;;;0.41;94.53;98074.50;4169660;28;20390;-72
2022/02/07 06:47:11;;;;;;;4.43;1.50;;;;;;;0.39;94.58;98076.78;4167167;28;20106;-72
2022/02/07 06:49:11;;;;;;;6.90;1.92;;;;;;;0.44;94.20;98065.72;4169654;28;20045;-72
2022/02/07 06:51:12;;;;;;;4.68;1.88;;;;;;;0.43;95.10;98083.19;4169400;28;20508;-72
2022/02/07 06:53:12;;;;;;;8.05;2.70;;;;;;;0.47;95.04;98105.91;4169444;28;20044;-72
2022/02/07 06:55:12;;;;;;;7.05;1.75;;;;;;;0.51;94.16;98097.91;4169602;28;20439;-72
2022/02/07 06:57:15;;;;;;;10.13;2.10;;;;;;;0.49;94.38;98114.53;4168912;28;20051;-72
2022/02/07 06:59:18;;;;;;;;;;;;;;;0.49;94.69;98102.84;4169732;28;20051;-72
2022/02/07 07:01:18;;;;;;;7.57;2.38;;;;;;;0.53;93.69;98125.59;4169235;28;20349;-72
2022/02/07 07:03:20;;;;;;;8.80;2.00;;;;;;;0.54;93.82;98122.56;4169238;28;20044;-72
2022/02/07 07:05:23;;;;;;;4.60;1.60;;;;;;;0.60;92.67;98127.84;4169908;28;20041;-72
2022/02/07 07:07:23;;;;;;;6.13;1.70;;;;;;;0.57;93.43;98146.41;4168833;28;20067;-72
2022/02/07 07:09:24;;;;;;;6.35;2.33;;;;;;;0.56;94.26;98163.06;4169316;28;20053;-72
2022/02/07 07:11:27;;;;;;;7.60;2.00;;;;;;;0.58;94.34;98147.25;4169846;28;20057;-72
2022/02/07 07:13:38;;;;;;;4.00;1.83;;;;;;;0.62;94.24;98161.00;4169737;28;20484;-72
2022/02/07 07:15:48;;;;;;;3.35;2.20;;;;;;;0.53;95.74;98178.13;4169198;28;20132;-72
2022/02/07 07:17:48;;;;;;;7.82;2.20;;;;;;;0.43;98.06;98185.81;4168728;28;20458;-71
2022/02/07 07:19:49;;;;;;;6.63;1.90;;;;;;;0.39;99.68;98191.06;4172642;28;20091;-72
2022/02/07 07:21:49;;;;;;;4.85;1.52;;;;;;;0.35;100.00;98213.81;4172723;28;20154;-72
2022/02/07 07:23:49;;;;;;;4.38;2.08;;;;;;;0.36;100.00;98218.94;4172456;28;20425;-71
2022/02/07 07:25:49;;;;;;;18.67;3.95;;;;;;;0.36;100.00;98201.81;4173182;28;20056;-72
2022/02/07 07:29:59;;;;;;;8.15;2.70;;;;;;;0.38;100.00;98222.13;4171228;28;20041;-72
2022/02/07 07:32:03;;;;;;;8.10;2.50;;;;;;;0.42;100.00;98228.56;4172366;28;20053;-72
2022/02/07 07:34:03;;;;;;;7.13;2.10;;;;;;;0.49;99.86;98239.75;4171988;28;20175;-72
2022/02/07 07:36:04;;;;;;;4.28;1.58;;;;;;;0.50;99.68;98254.19;4172593;28;20493;-72
2022/02/07 07:38:04;;;;;;;5.00;1.50;;;;;;;0.54;99.43;98244.25;4171689;28;20036;-72
2022/02/07 07:40:05;;;;;;;3.70;1.50;;;;;;;0.56;99.75;98253.72;4171980;28;20048;-72
2022/02/07 07:42:06;;;;;;;6.55;1.50;;;;;;;0.49;100.00;98255.28;4172100;28;20037;-72
2022/02/07 07:44:07;;;;;;;5.57;1.73;;;;;;;0.41;100.00;98261.50;4172048;28;20069;-72
2022/02/07 07:46:12;;;;;;;;;;;;;;;0.41;100.00;98275.94;4172510;28;20568;-72
2022/02/07 07:48:20;;;;;;;3.88;1.67;;;;;;;0.40;100.00;98271.59;4171161;28;19917;-72
2022/02/07 07:50:26;;;;;;;3.05;1.60;;;;;;;0.45;100.00;98287.81;4172077;28;20449;-72
2022/02/07 07:52:43;;;;;;;6.53;2.00;;;;;;;0.47;100.00;98295.66;4172180;28;20048;-72
2022/02/07 08:01:47;;;;;;;7.93;2.17;;;;;;;0.16;100.00;98320.97;4172118;28;20052;-72
2022/02/07 08:03:52;;;;;;;3.05;1.40;;;;;;;0.10;100.00;98319.53;4171716;28;20045;-72
2022/02/07 08:06:07;;;;;;;7.25;2.00;;;;;;;0.15;100.00;98332.19;4171947;28;20047;-72
2022/02/07 08:08:27;;;;;;;6.30;1.92;;;;;;;0.22;100.00;98327.91;4171001;28;20115;-72
2022/02/07 08:10:50;;;;;;;6.85;1.80;;;;;;;0.22;100.00;98337.97;4171591;28;20043;-72
2022/02/07 08:12:51;;;;;;;3.30;0.95;;;;;;;0.30;100.00;98355.47;4171711;28;20040;-71
2022/02/07 08:14:51;;;;;;;6.00;1.92;;;;;;;0.35;100.00;98345.25;4171035;28;20481;-72
2022/02/07 08:16:52;;;;;;;3.78;1.60;;;;;;;0.42;100.00;98345.59;4170955;28;20488;-72
2022/02/07 08:18:54;;;;;;;3.60;2.05;;;;;;;0.51;100.00;98361.97;4171580;28;20041;-72
2022/02/07 08:20:54;;;;;;;6.65;1.58;;;;;;;0.53;100.00;98360.53;4171650;28;20040;-72
2022/02/07 08:23:00;;;;;;;4.10;2.00;;;;;;;0.59;100.00;98354.94;4171847;28;20041;-72
2022/02/07 08:25:02;;;;;;;5.63;2.30;;;;;;;0.62;100.00;98366.00;4171764;28;20638;-72
2022/02/07 08:27:04;;;;;;;5.70;1.93;;;;;;;0.69;100.00;98365.53;4170952;28;20056;-72
2022/02/07 08:29:04;;;;;;;8.02;2.17;;;;;;;0.70;100.00;98370.66;4170923;28;20462;-72
2022/02/07 08:31:05;;;;;;;6.13;2.15;;;;;;;0.79;100.00;98381.59;4171327;28;20370;-72
2022/02/07 08:33:06;;;;;;;4.82;2.03;;;;;;;0.91;99.65;98384.53;4171687;28;20037;-72
2022/02/07 08:35:08;;;;;;;8.73;2.17;;;;;;;0.97;99.67;98385.94;4171096;28;20467;-72
2022/02/07 08:37:08;;;;;;;6.60;1.95;;;;;;;1.02;99.50;98380.38;4169790;28;20687;-72
2022/02/07 08:39:09;;;;;;;6.20;1.63;;;;;;;1.09;99.25;98397.06;4171450;28;20044;-71
2022/02/07 08:41:10;;;;;;;5.60;2.53;;;;;;;1.08;99.90;98405.56;4171384;28;20600;-71
2022/02/07 08:43:10;;;;;;;10.88;3.60;;;;;;;0.98;100.00;98398.44;4170937;28;20045;-71
2022/02/07 08:45:12;;;;;;;6.95;2.03;;;;;;;0.98;100.00;98416.72;4171206;28;20580;-72
2022/02/07 08:47:13;;;;;;;8.52;3.25;;;;;;;0.91;100.00;98427.28;4170898;28;20048;-71
2022/02/07 08:49:13;;;;;;;6.55;2.80;;;;;;;0.92;100.00;98424.25;4171065;28;20037;-71
2022/02/07 08:51:15;;;;;;;8.57;2.75;;;;;;;0.85;100.00;98418.47;4170930;28;20107;-71
2022/02/07 08:53:15;;;;;;;6.05;1.70;;;;;;;0.90;100.00;98429.19;4170975;28;20098;-71
2022/02/07 08:55:25;;;;;;;3.50;1.80;;;;;;;1.00;100.00;98430.84;4171065;28;20045;-72
2022/02/07 08:57:32;;;;;;;5.35;2.28;;;;;;;1.01;100.00;98433.25;4170243;28;20294;-72
2022/02/07 08:59:41;;;;;;;8.68;2.17;;;;;;;1.07;100.00;98434.69;4171389;28;20405;-72
2022/02/07 09:01:48;;;;;;;5.28;2.00;;;;;;;1.15;100.00;98432.31;4170821;28;20118;-72
2022/02/07 09:06:07;;;;;;;7.53;2.20;;;;;;;1.20;100.00;98432.97;4171599;28;20055;-72
2022/02/07 09:10:07;;;;;;;2.15;1.15;;;;;;;1.22;100.00;98460.72;4170822;28;20416;-72
2022/02/07 09:12:08;;;;;;;9.00;1.65;;;;;;;1.33;99.43;98467.50;4170896;28;20036;-72
2022/02/07 09:14:11;;;;;;;3.75;1.58;;;;;;;1.35;99.45;98467.16;4171047;28;20138;-72
2022/02/07 09:16:22;;;;;;;6.28;2.47;;;;;;;1.35;98.44;98467.97;4169521;28;20060;-72
2022/02/07 09:18:22;;;;;;;5.20;1.73;;;;;;;1.34;98.49;98468.28;4169663;28;20049;-72
2022/02/07 09:20:23;;;;;;;8.93;2.38;;;;;;;1.37;98.19;98464.91;4170648;28;20044;-72
2022/02/07 09:22:23;;;;;;;14.93;2.00;;;;;;;1.45;97.94;98472.31;4171054;28;20068;-72
2022/02/07 09:24:23;;;;;;;3.72;1.98;;;;;;;1.47;98.84;98478.25;4170833;28;20103;-72
2022/02/07 09:26:24;;;;;;;6.00;2.00;;;;;;;1.56;97.90;98478.25;4170064;28;20235;-72
2022/02/07 09:28:25;;;;;;;3.97;1.73;;;;;;;1.60;97.60;98484.69;4170252;28;20051;-72
2022/02/07 09:30:27;;;;;;;4.28;1.75;;;;;;;1.59;97.31;98477.63;4170367;28;20559;-72
2022/02/07 09:32:27;;;;;;;3.90;1.40;;;;;;;1.61;97.49;98492.53;4170480;28;20037;-72
2022/02/07 09:34:28;;;;;;;8.15;1.65;;;;;;;1.58;97.35;98493.19;4170309;28;20471;-72
2022/02/07 09:36:29;;;;;;;5.40;2.08;;;;;;;1.55;97.74;98488.34;4170217;28;20086;-72
2022/02/07 09:38:30;;;;;;;6.18;1.83;;;;;;;1.68;96.53;98492.09;4169968;28;20432;-72
2022/02/07 09:40:31;;;;;;;6.40;1.90;;;;;;;1.66;97.20;98499.78;4169647;28;20047;-72
2022/02/07 09:42:32;;;;;;;4.47;1.60;;;;;;;1.69;96.81;98499.13;4170009;28;20120;-72
2022/02/07 09:44:43;;;;;;;5.72;1.60;;;;;;;1.75;96.85;98510.72;4170373;28;20040;-72
2022/02/07 09:46:46;;;;;;;7.88;1.70;;;;;;;1.91;96.98;98528.22;4169886;28;20481;-72
2022/02/07 09:48:48;;;;;;;7.50;2.40;;;;;;;2.07;96.82;98515.72;4170438;28;20204;-72
2022/02/07 09:50:49;;;;;;;5.03;2.00;;;;;;;2.20;95.57;98542.03;4170164;28;20045;-72
2022/02/07 09:52:50;;;;;;;4.90;1.58;;;;;;;2.28;94.84;98543.16;4170100;28;20091;-72
2022/02/07 09:54:50;;;;;;;4.80;1.75;;;;;;;2.30;92.41;98535.44;4170408;28;20412;-72
2022/02/07 09:56:52;;;;;;;10.60;3.08;;;;;;;2.39;90.57;98551.81;4169034;28;20079;-72
2022/02/07 09:58:54;;;;;;;7.30;2.30;;;;;;;2.44;90.87;98576.22;4170047;28;20073;-72
2022/02/07 10:00:59;;;;;;;7.63;1.65;;;;;;;2.42;90.25;98565.63;4169798;28;20494;-72
2022/02/07 10:03:25;;;;;;;4.30;1.48;;;;;;;2.45;90.53;98588.75;4170018;28;20048;-72
2022/02/07 10:05:28;;;;;;;3.65;1.42;;;;;;;2.53;89.04;98587.94;4170111;28;20056;-72
2022/02/07 10:07:51;;;;;;;6.85;1.42;;;;;;;2.45;89.78;98599.69;4169392;28;20041;-72
2022/02/07 10:12:21;;;;;;;16.23;2.97;;;;;;;2.53;88.40;98594.22;4169727;28;20044;-72
2022/02/07 10:14:29;;;;;;;8.60;1.95;;;;;;;2.52;88.01;98606.28;4170004;28;20049;-72
2022/02/07 10:21:26;;;;;;;10.57;2.50;;;;;;;2.66;85.89;98605.31;4169853;28;20131;-72
2022/02/07 10:36:08;;;;;;;10.60;1.67;;;;;;;3.00;80.54;98643.53;4170027;28;20047;-72
2022/02/07 10:38:18;;;;;;;11.20;2.20;;;;;;;3.04;81.39;98647.19;4168214;28;20124;-72
2022/02/07 10:40:29;;;;;;;;;;;;;;;3.21;79.91;98653.75;4169189;28;20854;-72
2022/02/07 10:42:43;;;;;;;5.38;2.72;;;;;;;3.31;80.60;98658.88;4169315;28;20006;-72
2022/02/07 10:46:51;;;;;;;7.65;2.33;;;;;;;3.43;77.93;98674.63;4168880;28;20412;-72
2022/02/07 10:48:54;;;;;;;9.07;2.92;;;;;;;3.55;77.67;98702.91;4169147;28;20063;-72
2022/02/07 10:51:04;;;;;;;10.05;2.00;;;;;;;3.56;75.87;98715.47;4169746;28;20049;-72
2022/02/07 10:53:06;;;;;;;11.48;2.00;;;;;;;3.51;75.11;98706.63;4171280;28;20033;-72
2022/02/07 10:55:18;;;;;;;13.40;2.90;;;;;;;3.57;77.24;98714.34;4173169;28;20374;-72
2022/02/07 10:57:19;;;;;;;10.80;2.55;;;;;;;3.66;74.85;98714.31;4172355;28;20148;-72
2022/02/07 10:59:23;;;;;;;14.75;2.80;;;;;;;3.70;71.54;98720.72;4172847;28;20064;-72
2022/02/07 11:01:41;;;;;;;13.40;3.63;;;;;;;3.71;71.03;98755.16;4173063;28;20060;-72
2022/02/07 11:03:46;;;;;;;8.32;1.80;;;;;;;3.63;71.22;98731.38;4172620;28;20509;-72
2022/02/07 11:05:52;;;;;;;7.43;2.30;;;;;;;3.55;72.82;98737.66;4173070;28;20143;-72
2022/02/07 11:08:05;;;;;;;8.68;2.10;;;;;;;3.60;72.88;98726.56;4171389;28;20041;-72
2022/02/07 11:14:41;;;;;;;10.35;2.83;;;;;;;3.60;71.59;98767.59;4172666;28;20282;-73
2022/02/07 11:21:11;;;;;;;7.18;2.80;;;;;;;3.75;72.18;98752.59;4172728;28;20049;-72
2022/02/07 11:27:48;;;;;;;6.07;1.70;;;;;;;3.88;69.45;98768.81;4171681;28;20493;-72
2022/02/07 11:29:49;;;;;;;6.80;1.80;;;;;;;3.99;70.45;98755.59;4172057;28;20048;-72
2022/02/07 11:31:50;;;;;;;12.02;2.20;;;;;;;3.99;69.01;98776.69;4172431;28;20159;-72
2022/02/07 11:33:52;;;;;;;8.88;2.35;;;;;;;3.91;68.65;98762.69;4172797;28;20076;-73
2022/02/07 11:35:52;;;;;;;12.40;2.22;;;;;;;4.00;70.40;98765.41;4172687;28;20399;-73
2022/02/07 11:38:11;;;;;;;5.63;1.70;;;;;;;4.10;70.14;98764.22;4171320;28;20392;-73
2022/02/07 11:40:30;;;;;;;13.45;2.67;;;;;;;4.21;70.12;98781.91;4172121;28;20359;-72
2022/02/07 11:42:30;;;;;;;9.63;2.20;;;;;;;4.17;68.64;98811.88;4172339;28;20614;-72
2022/02/07 11:44:43;;;;;;;6.35;1.90;;;;;;;4.25;67.94;98795.75;4172374;28;20041;-72
2022/02/07 11:46:43;;;;;;;12.85;2.90;;;;;;;4.28;68.09;98795.09;4171560;28;20175;-72
2022/02/07 11:48:47;;;;;;;7.45;2.08;;;;;;;4.35;69.13;98801.66;4171918;28;20482;-73
2022/02/07 11:50:48;;;;;;;7.32;2.05;;;;;;;4.32;70.40;98802.34;4171971;28;20044;-72
2022/02/07 11:52:51;;;;;;;6.90;2.33;;;;;;;4.17;71.26;98811.09;4171774;28;20512;-72
2022/02/07 11:55:08;;;;;;;10.23;2.28;;;;;;;4.18;70.47;98816.22;4171661;28;20086;-72
2022/02/07 11:57:18;;;;;;;14.40;3.15;;;;;;;4.17;69.31;98819.31;4171517;28;20045;-72